sensor_id;sensor_type;location;lat;lon;timestamp;P1;durP1;ratioP1;P2;durP2;ratioP2
10082;SDS011;5080;48.528;8.078;2022-09-25T00:00:48;1.00;;;1.00;;
10082;SDS011;5080;48.528;8.078;2022-09-25T00:03:18;1.10;;;1.10;;
10082;SDS011;5080;48.528;8.078;2022-09-25T00:05:46;1.30;;;1.10;;
10082;SDS011;5080;48.528;8.078;2022-09-25T00:08:14;1.23;;;1.20;;
10082;SDS011;5080;48.528;8.078;2022-09-25T00:10:42;1.00;;;1.00;;
10082;SDS011;5080;48.528;8.078;2022-09-25T00:13:10;0.90;;;0.90;;
10082;SDS011;5080;48.528;8.078;2022-09-25T00:15:37;1.17;;;1.07;;
10082;SDS011;5080;48.528;8.078;2022-09-25T00:18:10;1.10;;;1.10;;
10082;SDS011;5080;48.528;8.078;2022-09-25T00:20:38;0.80;;;0.80;;
10082;SDS011;5080;48.528;8.078;2022-09-25T00:23:04;1.27;;;0.97;;
10082;SDS011;5080;48.528;8.078;2022-09-25T00:25:31;0.90;;;0.90;;
10082;SDS011;5080;48.528;8.078;2022-09-25T00:27:57;1.00;;;1.00;;
10082;SDS011;5080;48.528;8.078;2022-09-25T00:30:24;0.97;;;0.97;;
10082;SDS011;5080;48.528;8.078;2022-09-25T00:32:51;0.90;;;0.90;;
10082;SDS011;5080;48.528;8.078;2022-09-25T00:35:18;1.07;;;1.07;;
10082;SDS011;5080;48.528;8.078;2022-09-25T00:37:46;1.03;;;1.03;;
10082;SDS011;5080;48.528;8.078;2022-09-25T00:40:13;1.00;;;1.00;;
10082;SDS011;5080;48.528;8.078;2022-09-25T00:42:40;0.97;;;0.97;;
10082;SDS011;5080;48.528;8.078;2022-09-25T00:45:08;1.00;;;1.00;;
10082;SDS011;5080;48.528;8.078;2022-09-25T00:47:46;1.00;;;1.00;;
10082;SDS011;5080;48.528;8.078;2022-09-25T00:50:24;0.83;;;0.83;;
10082;SDS011;5080;48.528;8.078;2022-09-25T00:52:58;1.10;;;1.00;;
10082;SDS011;5080;48.528;8.078;2022-09-25T00:55:30;1.00;;;1.00;;
10082;SDS011;5080;48.528;8.078;2022-09-25T00:57:58;0.90;;;0.90;;
10082;SDS011;5080;48.528;8.078;2022-09-25T01:00:29;0.90;;;0.90;;
10082;SDS011;5080;48.528;8.078;2022-09-25T01:02:56;1.00;;;1.00;;
10082;SDS011;5080;48.528;8.078;2022-09-25T01:05:25;1.00;;;1.00;;
10082;SDS011;5080;48.528;8.078;2022-09-25T01:07:55;1.20;;;1.10;;
10082;SDS011;5080;48.528;8.078;2022-09-25T01:10:26;1.10;;;1.10;;
10082;SDS011;5080;48.528;8.078;2022-09-25T01:12:58;1.13;;;1.10;;
10082;SDS011;5080;48.528;8.078;2022-09-25T01:15:27;1.10;;;1.10;;
10082;SDS011;5080;48.528;8.078;2022-09-25T01:18:02;1.20;;;1.20;;
10082;SDS011;5080;48.528;8.078;2022-09-25T01:20:51;1.10;;;1.10;;
10082;SDS011;5080;48.528;8.078;2022-09-25T01:23:35;1.13;;;1.07;;
10082;SDS011;5080;48.528;8.078;2022-09-25T01:26:24;1.10;;;1.10;;
10082;SDS011;5080;48.528;8.078;2022-09-25T01:29:11;1.03;;;1.00;;
10082;SDS011;5080;48.528;8.078;2022-09-25T01:31:45;1.00;;;1.00;;
10082;SDS011;5080;48.528;8.078;2022-09-25T01:34:16;1.13;;;1.13;;
10082;SDS011;5080;48.528;8.078;2022-09-25T01:36:49;1.17;;;1.10;;
10082;SDS011;5080;48.528;8.078;2022-09-25T01:39:23;1.23;;;1.13;;
10082;SDS011;5080;48.528;8.078;2022-09-25T01:41:56;1.40;;;1.30;;
10082;SDS011;5080;48.528;8.078;2022-09-25T01:44:27;1.10;;;1.10;;
10082;SDS011;5080;48.528;8.078;2022-09-25T01:46:58;0.90;;;0.90;;
10082;SDS011;5080;48.528;8.078;2022-09-25T01:49:30;1.27;;;0.97;;
10082;SDS011;5080;48.528;8.078;2022-09-25T01:52:00;0.87;;;0.87;;
10082;SDS011;5080;48.528;8.078;2022-09-25T01:54:31;1.10;;;1.10;;
10082;SDS011;5080;48.528;8.078;2022-09-25T01:57:02;1.00;;;1.00;;
10082;SDS011;5080;48.528;8.078;2022-09-25T01:59:35;1.00;;;1.00;;
10082;SDS011;5080;48.528;8.078;2022-09-25T02:02:07;1.07;;;1.07;;
10082;SDS011;5080;48.528;8.078;2022-09-25T02:04:39;0.93;;;0.93;;
10082;SDS011;5080;48.528;8.078;2022-09-25T02:07:09;0.90;;;0.90;;
10082;SDS011;5080;48.528;8.078;2022-09-25T02:09:41;0.80;;;0.80;;
10082;SDS011;5080;48.528;8.078;2022-09-25T02:12:11;1.20;;;1.10;;
10082;SDS011;5080;48.528;8.078;2022-09-25T02:14:43;1.00;;;1.00;;
10082;SDS011;5080;48.528;8.078;2022-09-25T02:17:16;1.00;;;1.00;;
10082;SDS011;5080;48.528;8.078;2022-09-25T02:20:07;1.00;;;1.00;;
10082;SDS011;5080;48.528;8.078;2022-09-25T02:22:52;0.97;;;0.97;;
10082;SDS011;5080;48.528;8.078;2022-09-25T02:25:23;1.00;;;1.00;;
10082;SDS011;5080;48.528;8.078;2022-09-25T02:27:57;1.00;;;1.00;;
10082;SDS011;5080;48.528;8.078;2022-09-25T02:30:25;1.40;;;0.90;;
10082;SDS011;5080;48.528;8.078;2022-09-25T02:32:52;0.90;;;0.90;;
10082;SDS011;5080;48.528;8.078;2022-09-25T02:35:22;1.17;;;1.07;;
10082;SDS011;5080;48.528;8.078;2022-09-25T02:37:49;1.00;;;1.00;;
10082;SDS011;5080;48.528;8.078;2022-09-25T02:40:16;0.87;;;0.87;;
10082;SDS011;5080;48.528;8.078;2022-09-25T02:42:46;1.00;;;1.00;;
10082;SDS011;5080;48.528;8.078;2022-09-25T02:45:19;0.83;;;0.83;;
10082;SDS011;5080;48.528;8.078;2022-09-25T02:48:01;1.00;;;1.00;;
10082;SDS011;5080;48.528;8.078;2022-09-25T02:50:35;0.90;;;0.90;;
10082;SDS011;5080;48.528;8.078;2022-09-25T02:53:12;0.97;;;0.97;;
10082;SDS011;5080;48.528;8.078;2022-09-25T02:55:44;1.00;;;1.00;;
10082;SDS011;5080;48.528;8.078;2022-09-25T02:58:17;0.87;;;0.87;;
10082;SDS011;5080;48.528;8.078;2022-09-25T03:00:50;0.90;;;0.90;;
10082;SDS011;5080;48.528;8.078;2022-09-25T03:03:20;0.87;;;0.87;;
10082;SDS011;5080;48.528;8.078;2022-09-25T03:05:50;1.03;;;1.03;;
10082;SDS011;5080;48.528;8.078;2022-09-25T03:08:21;1.00;;;1.00;;
10082;SDS011;5080;48.528;8.078;2022-09-25T03:11:06;1.00;;;1.00;;
10082;SDS011;5080;48.528;8.078;2022-09-25T03:13:34;1.00;;;1.00;;
10082;SDS011;5080;48.528;8.078;2022-09-25T03:16:03;1.10;;;1.10;;
10082;SDS011;5080;48.528;8.078;2022-09-25T03:18:33;1.00;;;1.00;;
10082;SDS011;5080;48.528;8.078;2022-09-25T03:21:00;0.90;;;0.90;;
10082;SDS011;5080;48.528;8.078;2022-09-25T03:23:28;0.87;;;0.77;;
10082;SDS011;5080;48.528;8.078;2022-09-25T03:25:55;0.93;;;0.93;;
10082;SDS011;5080;48.528;8.078;2022-09-25T03:28:22;1.47;;;1.13;;
10082;SDS011;5080;48.528;8.078;2022-09-25T03:30:56;0.90;;;0.90;;
10082;SDS011;5080;48.528;8.078;2022-09-25T03:33:26;0.93;;;0.90;;
10082;SDS011;5080;48.528;8.078;2022-09-25T03:36:01;1.07;;;1.07;;
10082;SDS011;5080;48.528;8.078;2022-09-25T03:38:29;0.87;;;0.87;;
10082;SDS011;5080;48.528;8.078;2022-09-25T03:40:56;0.93;;;0.93;;
10082;SDS011;5080;48.528;8.078;2022-09-25T03:43:23;0.77;;;0.77;;
10082;SDS011;5080;48.528;8.078;2022-09-25T03:45:49;0.90;;;0.90;;
10082;SDS011;5080;48.528;8.078;2022-09-25T03:48:16;1.10;;;1.10;;
10082;SDS011;5080;48.528;8.078;2022-09-25T03:50:45;1.43;;;1.20;;
10082;SDS011;5080;48.528;8.078;2022-09-25T03:53:13;0.80;;;0.80;;
10082;SDS011;5080;48.528;8.078;2022-09-25T03:55:42;0.90;;;0.90;;
10082;SDS011;5080;48.528;8.078;2022-09-25T03:58:10;0.80;;;0.80;;
10082;SDS011;5080;48.528;8.078;2022-09-25T04:00:38;0.80;;;0.80;;
10082;SDS011;5080;48.528;8.078;2022-09-25T04:03:05;1.10;;;1.10;;
10082;SDS011;5080;48.528;8.078;2022-09-25T04:05:32;0.80;;;0.80;;
10082;SDS011;5080;48.528;8.078;2022-09-25T04:08:01;0.83;;;0.83;;
10082;SDS011;5080;48.528;8.078;2022-09-25T04:10:28;1.00;;;1.00;;
10082;SDS011;5080;48.528;8.078;2022-09-25T04:12:55;0.87;;;0.87;;
10082;SDS011;5080;48.528;8.078;2022-09-25T04:15:22;0.80;;;0.80;;
10082;SDS011;5080;48.528;8.078;2022-09-25T04:17:49;0.70;;;0.70;;
10082;SDS011;5080;48.528;8.078;2022-09-25T04:20:17;1.00;;;1.00;;
10082;SDS011;5080;48.528;8.078;2022-09-25T04:22:44;0.90;;;0.90;;
10082;SDS011;5080;48.528;8.078;2022-09-25T04:25:12;0.90;;;0.90;;
10082;SDS011;5080;48.528;8.078;2022-09-25T04:27:39;0.80;;;0.80;;
10082;SDS011;5080;48.528;8.078;2022-09-25T04:30:09;0.90;;;0.90;;
10082;SDS011;5080;48.528;8.078;2022-09-25T04:32:36;0.90;;;0.90;;
10082;SDS011;5080;48.528;8.078;2022-09-25T04:35:21;0.70;;;0.70;;
10082;SDS011;5080;48.528;8.078;2022-09-25T04:37:47;0.90;;;0.90;;
10082;SDS011;5080;48.528;8.078;2022-09-25T04:40:16;1.00;;;1.00;;
10082;SDS011;5080;48.528;8.078;2022-09-25T04:42:43;0.80;;;0.80;;
10082;SDS011;5080;48.528;8.078;2022-09-25T04:45:09;0.70;;;0.70;;
10082;SDS011;5080;48.528;8.078;2022-09-25T04:47:36;0.90;;;0.90;;
10082;SDS011;5080;48.528;8.078;2022-09-25T04:50:03;0.90;;;0.90;;
10082;SDS011;5080;48.528;8.078;2022-09-25T04:52:31;0.90;;;0.90;;
10082;SDS011;5080;48.528;8.078;2022-09-25T04:54:57;1.80;;;0.90;;
10082;SDS011;5080;48.528;8.078;2022-09-25T04:57:26;1.27;;;1.00;;
10082;SDS011;5080;48.528;8.078;2022-09-25T04:59:53;0.90;;;0.90;;
10082;SDS011;5080;48.528;8.078;2022-09-25T05:02:20;0.90;;;0.90;;
10082;SDS011;5080;48.528;8.078;2022-09-25T05:04:52;0.90;;;0.90;;
10082;SDS011;5080;48.528;8.078;2022-09-25T05:07:19;0.80;;;0.80;;
10082;SDS011;5080;48.528;8.078;2022-09-25T05:09:47;0.80;;;0.80;;
10082;SDS011;5080;48.528;8.078;2022-09-25T05:12:14;0.80;;;0.80;;
10082;SDS011;5080;48.528;8.078;2022-09-25T05:14:42;0.50;;;0.50;;
10082;SDS011;5080;48.528;8.078;2022-09-25T05:17:09;0.77;;;0.77;;
10082;SDS011;5080;48.528;8.078;2022-09-25T05:19:36;0.83;;;0.83;;
10082;SDS011;5080;48.528;8.078;2022-09-25T05:22:03;0.80;;;0.80;;
10082;SDS011;5080;48.528;8.078;2022-09-25T05:24:30;0.97;;;0.97;;
10082;SDS011;5080;48.528;8.078;2022-09-25T05:26:56;0.97;;;0.97;;
10082;SDS011;5080;48.528;8.078;2022-09-25T05:29:24;0.90;;;0.90;;
10082;SDS011;5080;48.528;8.078;2022-09-25T05:31:52;0.90;;;0.90;;
10082;SDS011;5080;48.528;8.078;2022-09-25T05:34:20;0.90;;;0.90;;
10082;SDS011;5080;48.528;8.078;2022-09-25T05:36:47;0.90;;;0.90;;
10082;SDS011;5080;48.528;8.078;2022-09-25T05:39:14;0.90;;;0.90;;
10082;SDS011;5080;48.528;8.078;2022-09-25T05:41:41;1.00;;;1.00;;
10082;SDS011;5080;48.528;8.078;2022-09-25T05:44:08;1.10;;;1.10;;
10082;SDS011;5080;48.528;8.078;2022-09-25T05:46:34;1.10;;;1.10;;
10082;SDS011;5080;48.528;8.078;2022-09-25T05:49:03;1.00;;;1.00;;
10082;SDS011;5080;48.528;8.078;2022-09-25T05:51:30;1.00;;;1.00;;
10082;SDS011;5080;48.528;8.078;2022-09-25T05:53:58;1.20;;;1.20;;
10082;SDS011;5080;48.528;8.078;2022-09-25T05:56:25;0.90;;;0.90;;
10082;SDS011;5080;48.528;8.078;2022-09-25T05:58:52;1.00;;;1.00;;
10082;SDS011;5080;48.528;8.078;2022-09-25T06:01:19;1.30;;;1.20;;
10082;SDS011;5080;48.528;8.078;2022-09-25T06:03:46;0.93;;;0.93;;
10082;SDS011;5080;48.528;8.078;2022-09-25T06:06:14;1.17;;;1.17;;
10082;SDS011;5080;48.528;8.078;2022-09-25T06:08:41;1.33;;;1.30;;
10082;SDS011;5080;48.528;8.078;2022-09-25T06:11:08;1.27;;;1.27;;
10082;SDS011;5080;48.528;8.078;2022-09-25T06:13:35;1.10;;;1.10;;
10082;SDS011;5080;48.528;8.078;2022-09-25T06:16:02;1.00;;;1.00;;
10082;SDS011;5080;48.528;8.078;2022-09-25T06:18:30;1.13;;;1.10;;
10082;SDS011;5080;48.528;8.078;2022-09-25T06:20:58;1.03;;;1.03;;
10082;SDS011;5080;48.528;8.078;2022-09-25T06:23:28;1.20;;;1.20;;
10082;SDS011;5080;48.528;8.078;2022-09-25T06:25:58;0.93;;;0.93;;
10082;SDS011;5080;48.528;8.078;2022-09-25T06:28:25;1.00;;;1.00;;
10082;SDS011;5080;48.528;8.078;2022-09-25T06:30:53;1.00;;;1.00;;
10082;SDS011;5080;48.528;8.078;2022-09-25T06:33:19;1.00;;;1.00;;
10082;SDS011;5080;48.528;8.078;2022-09-25T06:35:46;0.90;;;0.90;;
10082;SDS011;5080;48.528;8.078;2022-09-25T06:38:14;0.90;;;0.90;;
10082;SDS011;5080;48.528;8.078;2022-09-25T06:40:43;1.00;;;1.00;;
10082;SDS011;5080;48.528;8.078;2022-09-25T06:43:10;1.00;;;1.00;;
10082;SDS011;5080;48.528;8.078;2022-09-25T06:45:38;0.93;;;0.93;;
10082;SDS011;5080;48.528;8.078;2022-09-25T06:48:06;1.00;;;1.00;;
10082;SDS011;5080;48.528;8.078;2022-09-25T06:50:37;1.03;;;1.03;;
10082;SDS011;5080;48.528;8.078;2022-09-25T06:53:06;1.00;;;1.00;;
10082;SDS011;5080;48.528;8.078;2022-09-25T06:55:33;0.80;;;0.80;;
10082;SDS011;5080;48.528;8.078;2022-09-25T06:58:03;0.90;;;0.90;;
10082;SDS011;5080;48.528;8.078;2022-09-25T07:00:31;0.80;;;0.80;;
10082;SDS011;5080;48.528;8.078;2022-09-25T07:02:58;1.03;;;1.00;;
10082;SDS011;5080;48.528;8.078;2022-09-25T07:05:43;0.93;;;0.93;;
10082;SDS011;5080;48.528;8.078;2022-09-25T07:08:12;0.90;;;0.90;;
10082;SDS011;5080;48.528;8.078;2022-09-25T07:10:45;1.10;;;1.10;;
10082;SDS011;5080;48.528;8.078;2022-09-25T07:13:13;0.90;;;0.90;;
10082;SDS011;5080;48.528;8.078;2022-09-25T07:15:41;1.10;;;1.10;;
10082;SDS011;5080;48.528;8.078;2022-09-25T07:18:08;0.90;;;0.90;;
10082;SDS011;5080;48.528;8.078;2022-09-25T07:20:35;0.90;;;0.90;;
10082;SDS011;5080;48.528;8.078;2022-09-25T07:23:02;1.00;;;1.00;;
10082;SDS011;5080;48.528;8.078;2022-09-25T07:25:29;0.80;;;0.80;;
10082;SDS011;5080;48.528;8.078;2022-09-25T07:27:56;0.90;;;0.90;;
10082;SDS011;5080;48.528;8.078;2022-09-25T07:30:27;0.80;;;0.80;;
10082;SDS011;5080;48.528;8.078;2022-09-25T07:32:54;0.90;;;0.90;;
10082;SDS011;5080;48.528;8.078;2022-09-25T07:35:22;1.00;;;1.00;;
10082;SDS011;5080;48.528;8.078;2022-09-25T07:37:49;1.13;;;1.10;;
10082;SDS011;5080;48.528;8.078;2022-09-25T07:40:15;0.90;;;0.90;;
10082;SDS011;5080;48.528;8.078;2022-09-25T07:42:42;1.00;;;1.00;;
10082;SDS011;5080;48.528;8.078;2022-09-25T07:45:09;1.33;;;1.33;;
10082;SDS011;5080;48.528;8.078;2022-09-25T07:47:38;1.40;;;1.33;;
10082;SDS011;5080;48.528;8.078;2022-09-25T07:50:05;1.10;;;1.00;;
10082;SDS011;5080;48.528;8.078;2022-09-25T07:52:32;1.00;;;1.00;;
10082;SDS011;5080;48.528;8.078;2022-09-25T07:54:59;1.27;;;1.27;;
10082;SDS011;5080;48.528;8.078;2022-09-25T07:57:26;1.63;;;1.53;;
10082;SDS011;5080;48.528;8.078;2022-09-25T07:59:54;1.40;;;1.40;;
10082;SDS011;5080;48.528;8.078;2022-09-25T08:02:20;1.30;;;1.30;;
10082;SDS011;5080;48.528;8.078;2022-09-25T08:04:49;2.00;;;1.90;;
10082;SDS011;5080;48.528;8.078;2022-09-25T08:07:15;1.50;;;1.50;;
10082;SDS011;5080;48.528;8.078;2022-09-25T08:09:42;2.00;;;1.90;;
10082;SDS011;5080;48.528;8.078;2022-09-25T08:12:09;1.90;;;1.80;;
10082;SDS011;5080;48.528;8.078;2022-09-25T08:14:38;2.00;;;1.90;;
10082;SDS011;5080;48.528;8.078;2022-09-25T08:17:05;2.10;;;2.00;;
10082;SDS011;5080;48.528;8.078;2022-09-25T08:19:32;2.20;;;2.10;;
10082;SDS011;5080;48.528;8.078;2022-09-25T08:22:00;2.50;;;2.40;;
10082;SDS011;5080;48.528;8.078;2022-09-25T08:24:27;2.53;;;2.43;;
10082;SDS011;5080;48.528;8.078;2022-09-25T08:26:54;2.30;;;2.20;;
10082;SDS011;5080;48.528;8.078;2022-09-25T08:29:21;2.40;;;2.30;;
10082;SDS011;5080;48.528;8.078;2022-09-25T08:31:48;2.37;;;2.27;;
10082;SDS011;5080;48.528;8.078;2022-09-25T08:34:15;2.73;;;2.53;;
10082;SDS011;5080;48.528;8.078;2022-09-25T08:36:42;2.17;;;2.07;;
10082;SDS011;5080;48.528;8.078;2022-09-25T08:39:10;2.40;;;2.30;;
10082;SDS011;5080;48.528;8.078;2022-09-25T08:41:40;2.33;;;2.23;;
10082;SDS011;5080;48.528;8.078;2022-09-25T08:44:18;2.50;;;2.40;;
10082;SDS011;5080;48.528;8.078;2022-09-25T08:46:50;2.10;;;2.00;;
10082;SDS011;5080;48.528;8.078;2022-09-25T08:49:38;2.47;;;2.37;;
10082;SDS011;5080;48.528;8.078;2022-09-25T08:52:11;2.40;;;2.30;;
10082;SDS011;5080;48.528;8.078;2022-09-25T08:54:42;2.30;;;2.20;;
10082;SDS011;5080;48.528;8.078;2022-09-25T08:57:12;2.03;;;1.93;;
10082;SDS011;5080;48.528;8.078;2022-09-25T08:59:45;2.30;;;2.20;;
10082;SDS011;5080;48.528;8.078;2022-09-25T09:02:17;2.40;;;2.30;;
10082;SDS011;5080;48.528;8.078;2022-09-25T09:04:47;2.30;;;2.20;;
10082;SDS011;5080;48.528;8.078;2022-09-25T09:07:18;2.70;;;2.60;;
10082;SDS011;5080;48.528;8.078;2022-09-25T09:09:51;2.87;;;2.67;;
10082;SDS011;5080;48.528;8.078;2022-09-25T09:12:24;2.83;;;2.73;;
10082;SDS011;5080;48.528;8.078;2022-09-25T09:14:55;2.40;;;2.30;;
10082;SDS011;5080;48.528;8.078;2022-09-25T09:17:33;2.67;;;2.57;;
10082;SDS011;5080;48.528;8.078;2022-09-25T09:20:11;2.47;;;2.37;;
10082;SDS011;5080;48.528;8.078;2022-09-25T09:22:44;2.10;;;2.00;;
10082;SDS011;5080;48.528;8.078;2022-09-25T09:25:18;2.57;;;2.47;;
10082;SDS011;5080;48.528;8.078;2022-09-25T09:27:58;2.47;;;2.37;;
10082;SDS011;5080;48.528;8.078;2022-09-25T09:30:40;2.73;;;2.63;;
10082;SDS011;5080;48.528;8.078;2022-09-25T09:33:17;2.50;;;2.40;;
10082;SDS011;5080;48.528;8.078;2022-09-25T09:36:04;2.67;;;2.57;;
10082;SDS011;5080;48.528;8.078;2022-09-25T09:38:40;2.60;;;2.50;;
10082;SDS011;5080;48.528;8.078;2022-09-25T09:41:19;2.40;;;2.30;;
10082;SDS011;5080;48.528;8.078;2022-09-25T09:44:06;2.80;;;2.60;;
10082;SDS011;5080;48.528;8.078;2022-09-25T09:46:49;2.20;;;2.10;;
10082;SDS011;5080;48.528;8.078;2022-09-25T09:49:28;2.40;;;2.30;;
10082;SDS011;5080;48.528;8.078;2022-09-25T09:52:00;2.40;;;2.30;;
10082;SDS011;5080;48.528;8.078;2022-09-25T09:54:34;2.50;;;2.40;;
10082;SDS011;5080;48.528;8.078;2022-09-25T09:57:09;2.47;;;2.37;;
10082;SDS011;5080;48.528;8.078;2022-09-25T09:59:44;2.30;;;2.20;;
10082;SDS011;5080;48.528;8.078;2022-09-25T10:02:16;2.20;;;2.10;;
10082;SDS011;5080;48.528;8.078;2022-09-25T10:04:52;2.70;;;2.60;;
10082;SDS011;5080;48.528;8.078;2022-09-25T10:07:20;2.70;;;2.60;;
10082;SDS011;5080;48.528;8.078;2022-09-25T10:09:48;2.70;;;2.50;;
10082;SDS011;5080;48.528;8.078;2022-09-25T10:12:22;2.90;;;2.70;;
10082;SDS011;5080;48.528;8.078;2022-09-25T10:14:54;2.70;;;2.60;;
10082;SDS011;5080;48.528;8.078;2022-09-25T10:17:22;3.03;;;2.93;;
10082;SDS011;5080;48.528;8.078;2022-09-25T10:19:51;3.13;;;2.97;;
10082;SDS011;5080;48.528;8.078;2022-09-25T10:22:20;3.10;;;2.90;;
10082;SDS011;5080;48.528;8.078;2022-09-25T10:24:51;2.53;;;2.43;;
10082;SDS011;5080;48.528;8.078;2022-09-25T10:27:27;2.77;;;2.57;;
10082;SDS011;5080;48.528;8.078;2022-09-25T10:30:03;2.77;;;2.57;;
10082;SDS011;5080;48.528;8.078;2022-09-25T10:32:40;2.93;;;2.73;;
10082;SDS011;5080;48.528;8.078;2022-09-25T10:35:12;2.50;;;2.40;;
10082;SDS011;5080;48.528;8.078;2022-09-25T10:37:40;2.87;;;2.67;;
10082;SDS011;5080;48.528;8.078;2022-09-25T10:40:20;2.80;;;2.60;;
10082;SDS011;5080;48.528;8.078;2022-09-25T10:42:51;2.30;;;2.20;;
10082;SDS011;5080;48.528;8.078;2022-09-25T10:45:29;2.93;;;2.73;;
10082;SDS011;5080;48.528;8.078;2022-09-25T10:47:57;2.30;;;2.20;;
10082;SDS011;5080;48.528;8.078;2022-09-25T10:50:42;2.63;;;2.53;;
10082;SDS011;5080;48.528;8.078;2022-09-25T10:53:25;3.20;;;3.00;;
10082;SDS011;5080;48.528;8.078;2022-09-25T10:55:56;2.63;;;2.53;;
10082;SDS011;5080;48.528;8.078;2022-09-25T10:58:29;3.00;;;2.80;;
10082;SDS011;5080;48.528;8.078;2022-09-25T11:01:01;3.30;;;3.10;;
10082;SDS011;5080;48.528;8.078;2022-09-25T11:03:30;2.90;;;2.80;;
10082;SDS011;5080;48.528;8.078;2022-09-25T11:05:59;2.90;;;2.80;;
10082;SDS011;5080;48.528;8.078;2022-09-25T11:08:31;3.10;;;2.90;;
10082;SDS011;5080;48.528;8.078;2022-09-25T11:11:02;3.20;;;3.00;;
10082;SDS011;5080;48.528;8.078;2022-09-25T11:13:31;3.10;;;2.93;;
10082;SDS011;5080;48.528;8.078;2022-09-25T11:16:05;3.10;;;2.90;;
10082;SDS011;5080;48.528;8.078;2022-09-25T11:18:35;2.97;;;2.87;;
10082;SDS011;5080;48.528;8.078;2022-09-25T11:21:05;3.20;;;3.00;;
10082;SDS011;5080;48.528;8.078;2022-09-25T11:23:44;3.13;;;2.93;;
10082;SDS011;5080;48.528;8.078;2022-09-25T11:26:24;3.10;;;2.90;;
10082;SDS011;5080;48.528;8.078;2022-09-25T11:28:57;3.30;;;3.10;;
10082;SDS011;5080;48.528;8.078;2022-09-25T11:31:31;3.00;;;2.90;;
10082;SDS011;5080;48.528;8.078;2022-09-25T11:34:05;3.07;;;2.93;;
10082;SDS011;5080;48.528;8.078;2022-09-25T11:36:42;3.27;;;3.07;;
10082;SDS011;5080;48.528;8.078;2022-09-25T11:39:13;3.13;;;2.93;;
10082;SDS011;5080;48.528;8.078;2022-09-25T11:42:05;2.90;;;2.80;;
10082;SDS011;5080;48.528;8.078;2022-09-25T11:44:37;2.90;;;2.80;;
10082;SDS011;5080;48.528;8.078;2022-09-25T11:47:10;2.97;;;2.87;;
10082;SDS011;5080;48.528;8.078;2022-09-25T11:49:42;2.93;;;2.80;;
10082;SDS011;5080;48.528;8.078;2022-09-25T11:52:19;3.07;;;2.97;;
10082;SDS011;5080;48.528;8.078;2022-09-25T11:54:58;3.20;;;3.00;;
10082;SDS011;5080;48.528;8.078;2022-09-25T11:57:45;3.00;;;2.80;;
10082;SDS011;5080;48.528;8.078;2022-09-25T12:00:23;2.93;;;2.83;;
10082;SDS011;5080;48.528;8.078;2022-09-25T12:03:05;2.93;;;2.83;;
10082;SDS011;5080;48.528;8.078;2022-09-25T12:05:49;3.03;;;2.83;;
10082;SDS011;5080;48.528;8.078;2022-09-25T12:08:32;3.33;;;3.13;;
10082;SDS011;5080;48.528;8.078;2022-09-25T12:11:15;2.80;;;2.70;;
10082;SDS011;5080;48.528;8.078;2022-09-25T12:13:50;3.03;;;2.87;;
10082;SDS011;5080;48.528;8.078;2022-09-25T12:16:23;3.13;;;2.93;;
10082;SDS011;5080;48.528;8.078;2022-09-25T12:19:10;3.40;;;3.20;;
10082;SDS011;5080;48.528;8.078;2022-09-25T12:21:48;2.90;;;2.80;;
10082;SDS011;5080;48.528;8.078;2022-09-25T12:24:23;2.80;;;2.70;;
10082;SDS011;5080;48.528;8.078;2022-09-25T12:26:59;2.40;;;2.30;;
10082;SDS011;5080;48.528;8.078;2022-09-25T12:29:37;2.73;;;2.63;;
10082;SDS011;5080;48.528;8.078;2022-09-25T12:32:19;2.83;;;2.73;;
10082;SDS011;5080;48.528;8.078;2022-09-25T12:34:57;3.03;;;2.90;;
10082;SDS011;5080;48.528;8.078;2022-09-25T12:37:37;2.60;;;2.50;;
10082;SDS011;5080;48.528;8.078;2022-09-25T12:40:12;2.83;;;2.63;;
10082;SDS011;5080;48.528;8.078;2022-09-25T12:42:45;3.40;;;3.20;;
10082;SDS011;5080;48.528;8.078;2022-09-25T12:45:19;3.20;;;3.00;;
10082;SDS011;5080;48.528;8.078;2022-09-25T12:47:54;2.30;;;2.20;;
10082;SDS011;5080;48.528;8.078;2022-09-25T12:50:30;2.73;;;2.53;;
10082;SDS011;5080;48.528;8.078;2022-09-25T12:53:04;2.33;;;2.23;;
10082;SDS011;5080;48.528;8.078;2022-09-25T12:55:39;2.93;;;2.73;;
10082;SDS011;5080;48.528;8.078;2022-09-25T12:58:11;2.60;;;2.50;;
10082;SDS011;5080;48.528;8.078;2022-09-25T13:00:45;2.93;;;2.80;;
10082;SDS011;5080;48.528;8.078;2022-09-25T13:03:19;3.17;;;2.97;;
10082;SDS011;5080;48.528;8.078;2022-09-25T13:05:52;3.30;;;3.20;;
10082;SDS011;5080;48.528;8.078;2022-09-25T13:08:31;2.90;;;2.80;;
10082;SDS011;5080;48.528;8.078;2022-09-25T13:11:02;2.90;;;2.80;;
10082;SDS011;5080;48.528;8.078;2022-09-25T13:13:36;2.30;;;2.20;;
10082;SDS011;5080;48.528;8.078;2022-09-25T13:16:09;2.57;;;2.47;;
10082;SDS011;5080;48.528;8.078;2022-09-25T13:18:45;2.43;;;2.33;;
10082;SDS011;5080;48.528;8.078;2022-09-25T13:21:23;2.60;;;2.50;;
10082;SDS011;5080;48.528;8.078;2022-09-25T13:23:54;2.30;;;2.20;;
10082;SDS011;5080;48.528;8.078;2022-09-25T13:26:24;2.00;;;1.90;;
10082;SDS011;5080;48.528;8.078;2022-09-25T13:28:54;2.20;;;2.10;;
10082;SDS011;5080;48.528;8.078;2022-09-25T13:31:23;2.00;;;1.90;;
10082;SDS011;5080;48.528;8.078;2022-09-25T13:33:54;2.50;;;2.00;;
10082;SDS011;5080;48.528;8.078;2022-09-25T13:36:30;2.10;;;2.00;;
10082;SDS011;5080;48.528;8.078;2022-09-25T13:39:04;2.30;;;2.20;;
10082;SDS011;5080;48.528;8.078;2022-09-25T13:41:59;2.33;;;2.00;;
10082;SDS011;5080;48.528;8.078;2022-09-25T13:44:37;2.23;;;2.13;;
10082;SDS011;5080;48.528;8.078;2022-09-25T13:47:37;2.60;;;2.50;;
10082;SDS011;5080;48.528;8.078;2022-09-25T13:50:22;2.63;;;2.53;;
10082;SDS011;5080;48.528;8.078;2022-09-25T13:53:00;2.97;;;2.87;;
10082;SDS011;5080;48.528;8.078;2022-09-25T13:56:03;2.53;;;2.43;;
10082;SDS011;5080;48.528;8.078;2022-09-25T14:01:32;2.40;;;2.30;;
10082;SDS011;5080;48.528;8.078;2022-09-25T14:04:06;2.20;;;2.10;;
10082;SDS011;5080;48.528;8.078;2022-09-25T14:06:36;1.90;;;1.80;;
10082;SDS011;5080;48.528;8.078;2022-09-25T14:09:07;1.90;;;1.80;;
10082;SDS011;5080;48.528;8.078;2022-09-25T14:11:35;1.67;;;1.67;;
10082;SDS011;5080;48.528;8.078;2022-09-25T14:14:04;1.90;;;1.80;;
10082;SDS011;5080;48.528;8.078;2022-09-25T14:16:35;1.97;;;1.87;;
10082;SDS011;5080;48.528;8.078;2022-09-25T14:19:10;1.50;;;1.50;;
10082;SDS011;5080;48.528;8.078;2022-09-25T14:21:44;1.77;;;1.67;;
10082;SDS011;5080;48.528;8.078;2022-09-25T14:24:17;1.70;;;1.60;;
10082;SDS011;5080;48.528;8.078;2022-09-25T14:26:46;1.43;;;1.43;;
10082;SDS011;5080;48.528;8.078;2022-09-25T14:29:16;1.60;;;1.50;;
10082;SDS011;5080;48.528;8.078;2022-09-25T14:31:46;1.80;;;1.70;;
10082;SDS011;5080;48.528;8.078;2022-09-25T14:34:24;2.10;;;2.00;;
10082;SDS011;5080;48.528;8.078;2022-09-25T14:37:17;1.80;;;1.70;;
10082;SDS011;5080;48.528;8.078;2022-09-25T14:39:56;1.80;;;1.70;;
10082;SDS011;5080;48.528;8.078;2022-09-25T14:42:34;1.73;;;1.63;;
10082;SDS011;5080;48.528;8.078;2022-09-25T14:45:21;1.80;;;1.70;;
10082;SDS011;5080;48.528;8.078;2022-09-25T14:48:11;1.40;;;1.40;;
10082;SDS011;5080;48.528;8.078;2022-09-25T14:50:42;1.40;;;1.40;;
10082;SDS011;5080;48.528;8.078;2022-09-25T14:53:16;1.70;;;1.60;;
10082;SDS011;5080;48.528;8.078;2022-09-25T14:55:51;1.30;;;1.30;;
10082;SDS011;5080;48.528;8.078;2022-09-25T14:58:19;1.90;;;1.80;;
10082;SDS011;5080;48.528;8.078;2022-09-25T15:00:51;2.40;;;2.30;;
10082;SDS011;5080;48.528;8.078;2022-09-25T15:03:20;2.20;;;2.10;;
10082;SDS011;5080;48.528;8.078;2022-09-25T15:05:51;2.53;;;2.43;;
10082;SDS011;5080;48.528;8.078;2022-09-25T15:08:20;2.80;;;2.70;;
10082;SDS011;5080;48.528;8.078;2022-09-25T15:10:59;3.40;;;3.20;;
10082;SDS011;5080;48.528;8.078;2022-09-25T15:13:26;2.80;;;2.60;;
10082;SDS011;5080;48.528;8.078;2022-09-25T15:15:57;3.00;;;2.80;;
10082;SDS011;5080;48.528;8.078;2022-09-25T15:18:43;2.60;;;2.50;;
10082;SDS011;5080;48.528;8.078;2022-09-25T15:21:15;3.03;;;2.90;;
10082;SDS011;5080;48.528;8.078;2022-09-25T15:23:49;2.67;;;2.57;;
10082;SDS011;5080;48.528;8.078;2022-09-25T15:26:17;3.20;;;3.00;;
10082;SDS011;5080;48.528;8.078;2022-09-25T15:28:44;2.67;;;2.57;;
10082;SDS011;5080;48.528;8.078;2022-09-25T15:31:11;2.80;;;2.70;;